默认 日期 大小 文件数 浏览量 最新下载 xml
for-磁力链接相关资源由用户搜索指令自动获取,结果来源于网络,本站不存储任何资料,亦不承担任何责任,请于24小时内删除,搜索到627984个磁力,显示前4000条数据,用时156ms。
    {"Provided by PornRips.to.nfo": 47, "BrazzersExxtra.26.03.22.Ryan.Reid.And.Kayley.Gunner.Surprise.Dick.For.Their.Anniversary.XXX.720p.HEVC.x265.PRT.mp4": 356293092}
创建时间: 2026-05-01 08:37:43 大小:339.79 MB 文件数量:2 热度:0
    ... and certificate Thank you for joining the course.mp4": ... 32015147, "12. Advice for skating in skateparks.mp4": 133070102 ... 1 Downhill skating Techniques for controlled downhill skating.mp4": ... 1 Downhill skating Techniques for controlled downhill skating.en_US. ...
创建时间: 2026-05-01 08:21:56 大小:3.95 GB 文件数量:106 热度:0
    ... From UIndex.org .txt": 127, "For.All.Mankind.S02E09.Triage.1080p ... .HEVC.x265-MeGusta.mkv": 609173116, "For.All.Mankind.S02E09.Triage.1080p ...
创建时间: 2026-05-01 08:12:38 大小:601.04 MB 文件数量:6 热度:0
    ... ": 84, "Escaping.Polygamy.S02E05.Trouble.for.Mom.XviD-AFG.avi": 737903418 ... , "Escaping.Polygamy.S02E05.Trouble.for.Mom.XviD-AFG.nfo": 1194}
创建时间: 2026-05-01 08:12:21 大小:705 MB 文件数量:7 热度:0
    ... .mkv": 7237247445, "KamiKatsu.Working.for.God.in.a.Godless.World ... .mkv": 7179640180, "KamiKatsu.Working.for.God.in.a.Godless.World ... .mkv": 7169311424, "KamiKatsu.Working.for.God.in.a.Godless.World ... .mkv": 7213861016, "KamiKatsu.Working.for.God.in.a.Godless.World ...
创建时间: 2026-05-01 08:11:37 大小:80.62 GB 文件数量:12 热度:0
    ... .mp4": 14473019, "EOP-3590 classy for an anal slut.mp4": 522977568 ...
创建时间: 2026-05-01 08:07:45 大小:618.28 MB 文件数量:24 热度:0
    ... .html": 4070, "5. Key Locations For Forex.html": 2634}}
创建时间: 2026-04-30 19:42:51 大小:7.75 MB 文件数量:20 热度:0
    {"Heaven Is for Real (2014).avi": 716746797}
创建时间: 2026-04-30 19:41:42 大小:683.54 MB 文件数量:1 热度:0
    ... RGzsRutracker.mkv": 5420838826, "For.All.Mankind.S05E02.1080p.WEB ... RGzsRutracker.mkv": 4231244356, "For.All.Mankind.S05E03.1080p.WEB ... RGzsRutracker.mkv": 5446529399, "For.All.Mankind.S05E04.1080p. ... RGzsRutracker.mkv": 5188585041, "For.All.Mankind.S05E05.1080p. ...
创建时间: 2026-04-30 19:41:16 大小:23.41 GB 文件数量:5 热度:0
    {"~Get Your Files Here !": {"Bonus Resources.txt": 70, "Instagram&FacebookAll-in-OneForDummies.pdf": 58124169}, "Get Bonus Downloads Here.url": 180}
创建时间: 2026-04-30 19:37:30 大小:55.43 MB 文件数量:3 热度:0
    {"拼桌.A.Table.For.Two.2026.1080p.WEB-DL. ...
创建时间: 2026-04-30 19:23:55 大小:1.38 GB 文件数量:4 热度:0
    ... Shachibato! President, It's Time for Battle! S01E01 VOSTFR 1080p 10bits ... ! President, It's Time for Battle! S01E02 VOSTFR 1080p 10bits ... ! President, It's Time for Battle! S01E03 VOSTFR 1080p 10bits ... ! President, It's Time for Battle! S01E04 VOSTFR 1080p 10bits ...
创建时间: 2026-04-30 19:22:45 大小:5.24 GB 文件数量:18 热度:0
    {".pad": {"0": 474084}, "crack": {"cgauth.dll": 647168, "!ReadMe.txt": 1524}, "vray_73000_sketchup_win.exe": 1301331496}
创建时间: 2026-04-30 19:22:31 大小:1.21 GB 文件数量:4 热度:0
    {"01.jpg": 415690, "02.jpg": 531997, "03.jpg": 784194, "04.jpg": 664245, "05.jpg": 727937, "06.jpg": 559308, "07.jpg": 723271, "08.jpg": 623686, "09.jpg": 637326, "10.jpg": 635103, "11.jpg": 705967, "12.jpg": 635315, "13.jpg": 571143, "14.jpg": 629550, "15 ...
创建时间: 2026-04-30 19:22:15 大小:15.85 MB 文件数量:28 热度:0
    {"Torrent Downloaded From XXXClub.to .nfo": 34, "caribbeancom.26.04.25.suzu.nonomiya.non.stop.xxx.for.180min.endless.creampie.to.a.nice.body.and.beautiful.woman.xxx.mp4": 2782617261}
创建时间: 2026-04-30 19:07:53 大小:2.59 GB 文件数量:2 热度:0
    {"hackstore.url": 123, "For.All.Making.S05e05.2026.1080P-Dual-Lat.mkv": 1100552152, "For.All.Making.S05e05.2026.1080P-Dual-Lat_Track05.srt": 57352}
创建时间: 2026-04-30 19:06:03 大小:1.03 GB 文件数量:3 热度:0
    ... xml": 2295, "self-help devices for the physically disabled_page_numbers.json": 10514 ... , "self-help-devices-for-the-physically-disabled_202512_meta.sqlite": 20480 ... , "self-help devices for the physically disabled_hocr_pageindex.json.gz ...
创建时间: 2026-04-30 18:57:17 大小:79.91 MB 文件数量:12 热度:0
    ... ": 976362}, "C.M. Stunich - Seminal For the Love of Aliens, Book ... ": 944770}, "C.M. Stunich - Pheromone For the Love of Aliens, Book ... 1 - 02.m4b": 20145009, "Pheromone For the Love of Aliens, Book ... 1 - 03.m4b": 27672154, "Pheromone For the Love of Aliens, Book ...
创建时间: 2026-04-30 18:33:16 大小:2.62 GB 文件数量:86 热度:0
    {"wejdź po więcej.html": 906, "Polskie-Torrenty.eu - Darmowe Torrenty.url": 118, "Kaerlighed.for.voksne.2022.PL.1080p.WEB-DL.H264.DDP5.1-S56.mkv": 5942649090}
创建时间: 2026-04-30 18:29:14 大小:5.53 GB 文件数量:3 热度:0
    ... Flamingos - I Only Have Eyes For You.m4a": 2480197, "26. Annette ...
创建时间: 2026-04-30 18:10:31 大小:62.4 MB 文件数量:34 热度:0